Time;durP1;ratioP1;P1;durP2;ratioP2;P2;SDS_P1;SDS_P2;PMS_P1;PMS_P2;Temp;Humidity;BMP_temperature;BMP_pressure;BME280_temperature;BME280_humidity;BME280_pressure;Samples;Min_cycle;Max_cycle;Signal;HPM_P1;HPM_P2
2021/05/29 00:00:10;;;;;;;1.33;0.65;;;10.20;99.90;;;;;;4404683;32;20061;-62
2021/05/29 00:02:36;;;;;;;0.45;0.45;;;10.30;99.90;;;;;;4432919;32;20408;-62
2021/05/29 00:05:05;;;;;;;0.40;0.40;;;10.20;99.90;;;;;;4431328;32;20089;-61
2021/05/29 00:07:32;;;;;;;0.32;0.32;;;10.30;99.90;;;;;;4405837;32;20066;-62
2021/05/29 00:09:57;;;;;;;0.30;0.30;;;10.30;99.90;;;;;;4431414;32;20471;-62
2021/05/29 00:12:23;;;;;;;0.40;0.40;;;10.30;99.90;;;;;;4432332;32;20517;-62
2021/05/29 00:14:49;;;;;;;0.70;0.70;;;10.20;99.90;;;;;;4431844;32;20479;-62
2021/05/29 00:17:15;;;;;;;0.35;0.35;;;10.10;99.90;;;;;;4431871;32;20399;-62
2021/05/29 00:19:40;;;;;;;0.30;0.30;;;10.10;99.90;;;;;;4407080;32;20094;-62
2021/05/29 00:22:06;;;;;;;1.95;1.05;;;10.20;99.90;;;;;;4417427;32;20058;-63
2021/05/29 00:24:32;;;;;;;20.92;0.50;;;10.10;99.90;;;;;;4403693;32;20589;-62
2021/05/29 00:26:59;;;;;;;1.00;0.80;;;10.10;99.90;;;;;;4417319;32;20061;-61
2021/05/29 00:29:24;;;;;;;0.30;0.30;;;10.10;99.90;;;;;;4402363;32;20070;-62
2021/05/29 00:31:50;;;;;;;3.12;0.70;;;10.10;99.90;;;;;;4402922;32;20074;-62
2021/05/29 00:34:15;;;;;;;0.30;0.30;;;10.10;99.90;;;;;;4415935;32;20086;-63
2021/05/29 00:36:41;;;;;;;0.32;0.32;;;10.10;99.90;;;;;;4416338;32;20514;-61
2021/05/29 00:39:07;;;;;;;0.70;0.70;;;10.10;99.90;;;;;;4415874;32;20134;-62
2021/05/29 00:41:33;;;;;;;0.98;0.80;;;10.10;99.90;;;;;;4417293;32;20066;-62
2021/05/29 00:43:59;;;;;;;0.30;0.30;;;10.00;99.90;;;;;;4440157;32;20080;-62
2021/05/29 00:46:24;;;;;;;3.85;0.55;;;10.00;99.90;;;;;;4447252;32;20142;-62
2021/05/29 00:48:50;;;;;;;0.80;0.80;;;10.10;99.90;;;;;;4446119;32;20132;-60
2021/05/29 00:51:16;;;;;;;0.35;0.35;;;10.10;99.90;;;;;;4447242;32;20120;-62
2021/05/29 00:53:44;;;;;;;0.22;0.22;;;9.90;99.90;;;;;;4433671;32;20069;-62
2021/05/29 00:56:09;;;;;;;0.30;0.30;;;9.80;99.90;;;;;;4446196;32;20061;-62
2021/05/29 00:58:35;;;;;;;0.30;0.30;;;9.90;99.90;;;;;;4446415;32;20066;-63
2021/05/29 01:01:01;;;;;;;0.28;0.28;;;9.90;99.90;;;;;;4445414;32;20525;-62
2021/05/29 01:03:28;;;;;;;0.45;0.45;;;9.80;99.90;;;;;;4447468;32;20065;-61
2021/05/29 01:05:55;;;;;;;0.40;0.40;;;9.80;99.90;;;;;;4446379;32;20162;-61
2021/05/29 01:08:24;;;;;;;0.60;0.60;;;9.70;99.90;;;;;;4420665;32;20066;-61
2021/05/29 01:10:49;;;;;;;2.30;0.60;;;9.70;99.90;;;;;;4432843;32;20065;-62
2021/05/29 01:13:14;;;;;;;0.30;0.30;;;9.70;99.90;;;;;;4436036;32;20128;-63
2021/05/29 01:15:42;;;;;;;0.85;0.52;;;9.80;99.90;;;;;;4431032;32;20057;-62
2021/05/29 01:18:16;;;;;;;0.30;0.30;;;9.90;99.90;;;;;;4431573;32;20082;-62
2021/05/29 01:20:44;;;;;;;0.20;0.20;;;9.90;99.90;;;;;;4416159;32;20427;-61
2021/05/29 01:23:10;;;;;;;0.30;0.30;;;9.80;99.90;;;;;;4405002;32;20124;-60
2021/05/29 01:25:41;;;;;;;0.40;0.40;;;9.90;99.90;;;;;;4417400;32;20502;-62
2021/05/29 01:28:10;;;;;;;0.30;0.30;;;9.90;99.90;;;;;;4405168;32;20077;-62
2021/05/29 01:30:41;;;;;;;0.40;0.40;;;9.70;99.90;;;;;;4429573;32;20584;-61
2021/05/29 01:33:09;;;;;;;;;;;9.60;99.90;;;;;;4418861;32;21970;-60
2021/05/29 01:35:36;;;;;;;0.30;0.30;;;9.60;99.90;;;;;;4430763;32;19959;-62
2021/05/29 01:38:01;;;;;;;0.20;0.20;;;9.60;99.90;;;;;;4417432;32;20093;-61
2021/05/29 01:40:27;;;;;;;0.50;0.50;;;9.70;99.90;;;;;;4430221;32;20525;-62
2021/05/29 01:42:53;;;;;;;0.30;0.30;;;9.60;99.90;;;;;;4431047;32;20109;-62
2021/05/29 01:45:18;;;;;;;0.47;0.47;;;9.50;99.90;;;;;;4430552;32;20053;-62
2021/05/29 01:47:45;;;;;;;0.40;0.40;;;9.50;99.90;;;;;;4430974;32;20065;-62
2021/05/29 01:50:14;;;;;;;0.40;0.40;;;9.50;99.90;;;;;;4417237;32;20233;-62
2021/05/29 01:52:51;;;;;;;0.40;0.40;;;9.50;99.90;;;;;;4417731;32;20060;-62
2021/05/29 01:55:18;;;;;;;0.70;0.70;;;9.40;99.90;;;;;;4431781;32;20065;-63
2021/05/29 01:57:44;;;;;;;0.95;0.52;;;9.30;99.90;;;;;;4416346;32;20073;-61
2021/05/29 02:00:11;;;;;;;0.57;0.45;;;9.30;99.90;;;;;;4415723;32;20104;-62
2021/05/29 02:02:36;;;;;;;8.02;0.73;;;9.30;99.90;;;;;;4431399;32;20081;-62
2021/05/29 02:05:16;;;;;;;0.43;0.32;;;9.30;99.90;;;;;;4416721;32;20416;-62
2021/05/29 02:07:43;;;;;;;0.28;0.28;;;9.20;99.90;;;;;;4403785;32;20077;-62
2021/05/29 02:10:10;;;;;;;0.40;0.40;;;9.20;99.90;;;;;;4428960;32;20065;-62
2021/05/29 02:12:38;;;;;;;0.30;0.30;;;9.20;99.90;;;;;;4430068;32;20108;-60
2021/05/29 02:15:05;;;;;;;0.35;0.35;;;9.20;99.90;;;;;;4416616;32;20061;-62
2021/05/29 02:17:30;;;;;;;0.50;0.50;;;9.20;99.90;;;;;;4416028;32;20073;-62
2021/05/29 02:19:56;;;;;;;0.30;0.30;;;9.20;99.90;;;;;;4430017;32;20072;-62
2021/05/29 02:22:21;;;;;;;0.20;0.20;;;9.30;99.90;;;;;;4430246;32;20151;-62
2021/05/29 02:24:47;;;;;;;1.10;1.00;;;9.20;99.90;;;;;;4416284;32;20424;-62
2021/05/29 02:27:12;;;;;;;0.22;0.22;;;9.10;99.90;;;;;;4428696;32;20081;-62
2021/05/29 02:29:38;;;;;;;0.85;0.65;;;9.10;99.90;;;;;;4429339;32;20073;-62
2021/05/29 02:32:03;;;;;;;0.32;0.32;;;9.10;99.90;;;;;;4416092;32;20070;-61
2021/05/29 02:34:29;;;;;;;0.40;0.40;;;9.10;99.90;;;;;;4429981;32;20532;-61
2021/05/29 02:36:54;;;;;;;0.45;0.45;;;9.10;99.90;;;;;;4430583;32;20072;-62
2021/05/29 02:39:20;;;;;;;0.60;0.60;;;9.10;99.90;;;;;;4430315;32;20085;-62
2021/05/29 02:41:45;;;;;;;0.25;0.25;;;9.10;99.90;;;;;;4429990;32;20073;-61
2021/05/29 02:44:11;;;;;;;0.20;0.20;;;9.00;99.90;;;;;;4416767;32;20073;-62
2021/05/29 02:46:36;;;;;;;0.22;0.22;;;9.10;99.90;;;;;;4429953;32;20062;-61
2021/05/29 02:49:02;;;;;;;0.80;0.80;;;9.10;99.90;;;;;;4430536;32;20061;-62
2021/05/29 02:51:27;;;;;;;0.52;0.52;;;9.10;99.90;;;;;;4429694;32;20077;-61
2021/05/29 02:53:53;;;;;;;0.75;0.47;;;9.10;99.90;;;;;;4429994;32;20057;-62
2021/05/29 02:56:18;;;;;;;22.62;3.17;;;9.10;99.90;;;;;;4430793;32;20151;-62
2021/05/29 02:58:44;;;;;;;0.45;0.45;;;9.20;99.90;;;;;;4430073;32;20081;-62
2021/05/29 03:01:09;;;;;;;0.20;0.20;;;9.10;99.90;;;;;;4430094;32;20577;-62
2021/05/29 03:03:35;;;;;;;0.50;0.50;;;9.30;99.90;;;;;;4415198;32;20094;-61
2021/05/29 03:06:00;;;;;;;0.40;0.40;;;9.20;99.90;;;;;;4430644;32;20068;-63
2021/05/29 03:08:26;;;;;;;0.65;0.65;;;9.10;99.90;;;;;;4429941;32;20077;-62
2021/05/29 03:10:53;;;;;;;0.98;0.68;;;9.10;99.90;;;;;;4430492;32;20082;-61
2021/05/29 03:13:19;;;;;;;0.35;0.35;;;9.00;99.90;;;;;;4428919;32;20077;-61
2021/05/29 03:15:45;;;;;;;0.30;0.30;;;9.00;99.90;;;;;;4415466;32;20077;-61
2021/05/29 03:18:11;;;;;;;2.55;0.55;;;9.00;99.90;;;;;;4429963;32;20085;-61
2021/05/29 03:20:36;;;;;;;0.40;0.40;;;8.90;99.90;;;;;;4429759;32;20124;-62
2021/05/29 03:23:03;;;;;;;0.30;0.30;;;8.90;99.90;;;;;;4416356;32;20128;-61
2021/05/29 03:25:29;;;;;;;0.30;0.30;;;9.10;99.90;;;;;;4416540;32;20726;-61
2021/05/29 03:27:54;;;;;;;0.30;0.30;;;9.10;99.90;;;;;;4430034;32;20058;-60
2021/05/29 03:30:23;;;;;;;0.50;0.50;;;9.10;99.90;;;;;;4428377;32;20090;-61
2021/05/29 03:32:49;;;;;;;0.40;0.40;;;9.20;99.90;;;;;;4416662;32;20067;-60
2021/05/29 03:35:15;;;;;;;0.40;0.40;;;9.20;99.90;;;;;;4414907;32;20379;-62
2021/05/29 03:37:41;;;;;;;0.50;0.50;;;9.20;99.90;;;;;;4416679;32;20057;-61
2021/05/29 03:40:08;;;;;;;0.65;0.47;;;9.30;99.90;;;;;;4422456;32;20415;-62
2021/05/29 03:42:34;;;;;;;3.12;0.82;;;9.20;99.90;;;;;;4444849;32;20118;-61
2021/05/29 03:44:59;;;;;;;1.55;1.10;;;9.20;99.90;;;;;;4430894;32;20421;-63
2021/05/29 03:47:25;;;;;;;0.75;0.60;;;9.10;99.90;;;;;;4429038;32;20078;-62
2021/05/29 03:49:50;;;;;;;0.70;0.70;;;9.10;99.90;;;;;;4428344;32;20208;-62
2021/05/29 03:52:16;;;;;;;0.28;0.28;;;9.20;99.90;;;;;;4429729;32;20073;-63
2021/05/29 03:54:41;;;;;;;0.20;0.20;;;9.30;99.90;;;;;;4430042;32;20064;-62
2021/05/29 03:57:07;;;;;;;0.32;0.32;;;9.40;99.90;;;;;;4429855;32;20073;-61
2021/05/29 03:59:32;;;;;;;1.73;0.37;;;9.50;99.90;;;;;;4429546;32;20120;-61
2021/05/29 04:01:58;;;;;;;5.53;0.70;;;9.50;99.90;;;;;;4428603;32;20073;-59
2021/05/29 04:04:23;;;;;;;0.60;0.32;;;9.50;99.90;;;;;;4428526;32;20094;-61
2021/05/29 04:06:49;;;;;;;1.37;0.68;;;9.40;99.90;;;;;;4430257;32;20166;-62
2021/05/29 04:09:14;;;;;;;0.30;0.30;;;9.40;99.90;;;;;;4428725;32;20077;-61
2021/05/29 04:11:40;;;;;;;0.35;0.35;;;9.60;99.90;;;;;;4428505;32;20449;-60
2021/05/29 04:14:07;;;;;;;0.40;0.40;;;9.60;99.90;;;;;;4444810;32;20089;-62
2021/05/29 04:16:33;;;;;;;1.40;0.75;;;9.60;99.90;;;;;;4443406;32;20081;-62
2021/05/29 04:18:59;;;;;;;0.93;0.62;;;9.50;99.90;;;;;;4431303;32;20070;-61
2021/05/29 04:21:24;;;;;;;0.57;0.57;;;9.50;99.90;;;;;;4445034;32;20377;-62
2021/05/29 04:23:50;;;;;;;0.30;0.30;;;9.50;99.90;;;;;;4444631;32;20502;-62
2021/05/29 04:26:16;;;;;;;6.32;0.70;;;9.50;99.90;;;;;;4443629;32;20073;-62
2021/05/29 04:28:41;;;;;;;1.33;0.75;;;9.60;99.90;;;;;;4443881;32;20115;-62
2021/05/29 04:31:07;;;;;;;1.70;0.65;;;9.60;99.90;;;;;;4444366;32;20065;-61
2021/05/29 04:33:33;;;;;;;0.57;0.43;;;9.70;99.90;;;;;;4429760;32;20417;-61
2021/05/29 04:35:59;;;;;;;0.60;0.60;;;9.70;99.90;;;;;;4432591;32;20064;-61
2021/05/29 04:38:25;;;;;;;1.37;0.93;;;9.70;99.90;;;;;;4421486;32;20069;-60
2021/05/29 04:40:50;;;;;;;2.28;1.02;;;9.70;99.90;;;;;;4418797;32;20086;-60
2021/05/29 04:43:17;;;;;;;2.17;1.27;;;9.60;99.90;;;;;;4428439;32;20125;-61
2021/05/29 04:45:43;;;;;;;4.57;1.98;;;9.60;99.90;;;;;;4401580;32;20421;-61
2021/05/29 04:48:09;;;;;;;0.70;0.68;;;9.60;99.90;;;;;;4415999;32;20286;-60
2021/05/29 04:51:36;;;;;;;2.55;0.60;;;9.60;99.90;;;;;;4415499;32;20081;-61
2021/05/29 04:53:22;;;;;;;0.30;0.30;;;9.50;99.90;;;;;;4393959;32;20077;-60
2021/05/29 04:55:48;;;;;;;0.88;0.60;;;9.60;99.90;;;;;;4403229;32;20069;-61
2021/05/29 04:58:13;;;;;;;1.30;0.60;;;9.60;99.90;;;;;;4402178;32;20483;-61
2021/05/29 05:00:39;;;;;;;1.85;0.95;;;9.60;99.90;;;;;;4416345;32;20454;-62
2021/05/29 05:03:05;;;;;;;0.50;0.50;;;9.70;99.90;;;;;;4416979;32;20523;-62
2021/05/29 05:05:30;;;;;;;0.50;0.50;;;9.60;99.90;;;;;;4416432;32;20527;-63
2021/05/29 05:07:56;;;;;;;3.62;0.60;;;9.70;99.90;;;;;;4417377;32;20066;-61
2021/05/29 05:10:21;;;;;;;2.95;0.60;;;9.70;99.90;;;;;;4401867;32;20393;-61
2021/05/29 05:12:47;;;;;;;0.30;0.30;;;9.70;99.90;;;;;;4423089;32;20077;-62
2021/05/29 05:15:14;;;;;;;1.15;1.00;;;9.70;99.90;;;;;;4417062;32;20086;-61
2021/05/29 05:17:40;;;;;;;0.95;0.47;;;9.80;99.90;;;;;;4417769;32;20069;-61
2021/05/29 05:20:06;;;;;;;0.47;0.47;;;9.70;99.90;;;;;;4415946;32;20066;-62
2021/05/29 05:22:33;;;;;;;0.45;0.45;;;9.60;99.90;;;;;;4431828;32;20065;-60
2021/05/29 05:24:58;;;;;;;0.65;0.37;;;9.60;99.90;;;;;;4405497;32;20400;-60
2021/05/29 05:27:23;;;;;;;1.52;0.52;;;9.70;99.90;;;;;;4416526;32;20073;-61
2021/05/29 05:29:49;;;;;;;0.30;0.30;;;9.90;99.90;;;;;;4432312;32;20065;-62
2021/05/29 05:32:14;;;;;;;5.45;0.80;;;9.80;99.90;;;;;;4430058;32;20069;-62
2021/05/29 05:34:40;;;;;;;1.27;0.20;;;9.80;99.90;;;;;;4405987;32;20480;-62
2021/05/29 05:37:07;;;;;;;0.43;0.40;;;9.90;99.90;;;;;;4414971;32;20086;-62
2021/05/29 05:39:32;;;;;;;0.52;0.52;;;9.80;99.90;;;;;;4417858;32;20140;-61
2021/05/29 05:41:58;;;;;;;2.60;0.60;;;9.80;99.90;;;;;;4416641;32;20120;-62
2021/05/29 05:44:23;;;;;;;0.70;0.43;;;9.90;99.90;;;;;;4431362;32;20061;-62
2021/05/29 05:46:49;;;;;;;0.85;0.85;;;9.90;99.90;;;;;;4430602;32;20082;-62
2021/05/29 05:49:14;;;;;;;1.45;1.02;;;9.80;99.90;;;;;;4430875;32;20601;-62
2021/05/29 05:51:40;;;;;;;0.85;0.62;;;9.90;99.90;;;;;;4428980;32;20068;-61
2021/05/29 05:54:06;;;;;;;1.23;0.50;;;9.80;99.90;;;;;;4431037;32;20069;-61
2021/05/29 05:56:31;;;;;;;1.30;0.73;;;9.90;99.90;;;;;;4430613;32;20077;-62
2021/05/29 05:58:58;;;;;;;0.57;0.57;;;9.90;99.90;;;;;;4431303;32;20116;-62
2021/05/29 06:01:26;;;;;;;3.50;2.05;;;9.90;99.90;;;;;;4416995;32;20058;-61
2021/05/29 06:03:52;;;;;;;1.17;0.82;;;9.90;99.90;;;;;;4431130;32;20256;-62
2021/05/29 06:06:17;;;;;;;1.65;0.85;;;10.00;99.90;;;;;;4416608;32;20077;-62
2021/05/29 06:08:43;;;;;;;0.82;0.70;;;10.10;99.90;;;;;;4430490;32;20137;-62
2021/05/29 06:11:09;;;;;;;3.20;0.65;;;10.20;99.90;;;;;;4430735;32;20367;-63
2021/05/29 06:18:16;;;;;;;0.40;0.40;;;10.30;99.90;;;;;;4428928;32;20061;-62
2021/05/29 06:19:25;;;;;;;1.02;0.90;;;10.40;99.90;;;;;;4405459;32;20338;-61
2021/05/29 06:21:46;;;;;;;0.47;0.43;;;10.50;99.90;;;;;;4403278;32;20066;-61
2021/05/29 06:24:13;;;;;;;1.23;0.70;;;10.60;99.90;;;;;;4402662;32;20396;-61
2021/05/29 06:26:39;;;;;;;3.65;1.23;;;10.50;99.90;;;;;;4401893;32;20373;-62
2021/05/29 06:29:05;;;;;;;1.55;0.75;;;10.60;99.90;;;;;;4402025;32;20061;-62
2021/05/29 06:31:32;;;;;;;2.35;0.65;;;10.50;99.90;;;;;;4415332;32;20121;-63
2021/05/29 06:33:58;;;;;;;9.65;0.75;;;10.50;99.90;;;;;;4416599;32;20082;-60
2021/05/29 06:36:24;;;;;;;0.55;0.40;;;10.70;99.90;;;;;;4430404;32;20076;-62
2021/05/29 06:38:49;;;;;;;0.40;0.40;;;10.80;99.90;;;;;;4429085;32;20529;-62
2021/05/29 06:41:15;;;;;;;0.20;0.20;;;10.80;99.90;;;;;;4417603;32;20082;-62
2021/05/29 06:43:40;;;;;;;0.57;0.57;;;10.90;99.90;;;;;;4407329;32;20077;-62
2021/05/29 06:46:05;;;;;;;2.62;1.00;;;10.90;99.90;;;;;;4415714;32;20416;-62
2021/05/29 06:48:31;;;;;;;0.65;0.43;;;10.90;99.90;;;;;;4429865;32;20057;-62
2021/05/29 06:50:58;;;;;;;2.28;1.15;;;10.90;99.90;;;;;;4431611;32;20066;-63
2021/05/29 06:53:29;;;;;;;0.65;0.65;;;10.80;99.90;;;;;;4429382;32;20069;-61
2021/05/29 06:58:48;;;;;;;0.75;0.40;;;10.90;99.90;;;;;;4417825;32;20120;-62
2021/05/29 07:01:14;;;;;;;2.37;0.70;;;10.90;99.90;;;;;;4415957;32;20157;-62
2021/05/29 07:03:40;;;;;;;1.00;0.52;;;10.90;99.90;;;;;;4414987;32;20081;-61
2021/05/29 07:06:06;;;;;;;0.95;0.57;;;10.90;99.90;;;;;;4415581;32;20124;-64
2021/05/29 07:08:31;;;;;;;0.62;0.62;;;11.00;99.90;;;;;;4429734;32;20523;-61
2021/05/29 07:10:57;;;;;;;0.50;0.50;;;11.10;99.90;;;;;;4431199;32;20065;-61
2021/05/29 07:13:22;;;;;;;10.23;1.95;;;11.10;99.90;;;;;;4418010;32;20066;-62
2021/05/29 07:15:48;;;;;;;0.93;0.35;;;11.10;99.90;;;;;;4414404;32;20065;-63
2021/05/29 07:18:15;;;;;;;0.60;0.60;;;11.20;99.90;;;;;;4414625;32;20132;-63
2021/05/29 07:20:42;;;;;;;2.17;1.12;;;11.20;99.90;;;;;;4413798;32;20059;-63
2021/05/29 07:23:08;;;;;;;0.50;0.50;;;11.40;99.90;;;;;;4401175;32;20117;-62
2021/05/29 07:25:34;;;;;;;0.52;0.52;;;11.50;99.90;;;;;;4401005;32;20065;-62
2021/05/29 07:27:59;;;;;;;1.02;0.80;;;11.50;99.90;;;;;;4400093;32;20501;-63
2021/05/29 07:30:25;;;;;;;0.95;0.80;;;11.50;99.90;;;;;;4400066;32;20058;-62
2021/05/29 07:32:51;;;;;;;1.75;0.70;;;11.60;99.90;;;;;;4415483;32;20062;-61
2021/05/29 07:35:17;;;;;;;1.17;0.50;;;11.60;99.90;;;;;;4413117;32;20424;-62
2021/05/29 07:37:43;;;;;;;0.30;0.30;;;11.70;99.90;;;;;;4400359;32;20058;-62
2021/05/29 07:40:09;;;;;;;0.50;0.50;;;11.90;99.90;;;;;;4416971;32;20417;-62
2021/05/29 07:42:35;;;;;;;0.43;0.43;;;11.90;99.90;;;;;;4428882;32;20069;-62
2021/05/29 07:45:01;;;;;;;2.47;1.05;;;11.90;99.90;;;;;;4428358;32;20065;-63
2021/05/29 07:47:27;;;;;;;1.23;0.95;;;11.90;99.90;;;;;;4428198;32;20073;-62
2021/05/29 07:49:52;;;;;;;2.00;0.93;;;12.10;99.90;;;;;;4429934;32;20116;-62
2021/05/29 07:52:18;;;;;;;4.53;0.82;;;12.30;99.90;;;;;;4428942;32;20186;-63
2021/05/29 07:54:44;;;;;;;4.90;1.20;;;12.50;99.90;;;;;;4429386;32;20065;-62
2021/05/29 07:57:10;;;;;;;1.50;1.17;;;12.60;99.90;;;;;;4430007;32;20176;-62
2021/05/29 07:59:37;;;;;;;0.40;0.40;;;12.90;99.90;;;;;;4429604;32;20514;-60
2021/05/29 08:02:03;;;;;;;0.40;0.40;;;13.00;99.90;;;;;;4415517;32;20069;-62
2021/05/29 08:04:29;;;;;;;0.43;0.43;;;12.90;99.90;;;;;;4429497;32;20061;-61
2021/05/29 08:06:54;;;;;;;1.15;1.05;;;12.80;99.90;;;;;;4430130;32;20108;-63
2021/05/29 08:09:20;;;;;;;0.40;0.40;;;12.80;99.90;;;;;;4430832;32;20061;-62
2021/05/29 08:11:46;;;;;;;5.32;1.00;;;12.90;99.90;;;;;;4431085;32;20108;-62
2021/05/29 08:14:12;;;;;;;0.52;0.52;;;13.10;99.90;;;;;;4432054;32;20073;-63
2021/05/29 08:16:41;;;;;;;0.32;0.32;;;13.20;99.90;;;;;;4430825;32;20078;-62
2021/05/29 08:19:09;;;;;;;3.60;0.60;;;13.30;99.90;;;;;;4430804;32;20206;-63
2021/05/29 08:21:36;;;;;;;2.37;1.27;;;13.40;99.90;;;;;;4430598;32;20066;-62
2021/05/29 08:24:02;;;;;;;0.50;0.50;;;13.40;99.90;;;;;;4432174;32;20134;-63
2021/05/29 08:26:28;;;;;;;0.75;0.50;;;13.60;99.90;;;;;;4431534;32;20172;-62
2021/05/29 08:28:55;;;;;;;0.45;0.45;;;13.90;99.90;;;;;;4432516;32;20065;-61
2021/05/29 08:31:20;;;;;;;0.47;0.47;;;13.90;99.90;;;;;;4431086;32;20408;-62
2021/05/29 08:33:46;;;;;;;0.32;0.32;;;14.00;99.90;;;;;;4431850;32;20069;-59
2021/05/29 08:36:11;;;;;;;0.43;0.43;;;14.10;99.90;;;;;;4431314;32;20104;-63
2021/05/29 08:38:37;;;;;;;0.57;0.57;;;14.00;99.90;;;;;;4431314;32;20066;-62
2021/05/29 08:41:04;;;;;;;2.55;1.12;;;13.90;99.90;;;;;;4431947;32;20074;-62
2021/05/29 08:43:30;;;;;;;0.65;0.60;;;13.90;99.90;;;;;;4429761;32;20058;-63
2021/05/29 08:45:55;;;;;;;0.40;0.40;;;13.90;99.90;;;;;;4430525;32;20081;-62
2021/05/29 08:48:21;;;;;;;0.50;0.50;;;13.90;99.90;;;;;;4418006;32;20133;-61
2021/05/29 08:51:19;;;;;;;0.40;0.40;;;14.10;99.90;;;;;;4431824;32;20113;-62
2021/05/29 08:53:33;;;;;;;0.30;0.30;;;14.40;99.90;;;;;;4409496;32;20061;-62
2021/05/29 08:55:59;;;;;;;0.65;0.50;;;14.70;99.90;;;;;;4418402;32;20060;-62
2021/05/29 08:58:26;;;;;;;0.32;0.32;;;15.10;99.90;;;;;;4417647;32;20112;-61
2021/05/29 09:00:52;;;;;;;0.90;0.57;;;15.10;99.90;;;;;;4404738;32;20081;-62
2021/05/29 09:03:18;;;;;;;0.30;0.30;;;14.80;99.90;;;;;;4431192;32;20112;-63
2021/05/29 09:05:51;;;;;;;2.22;0.40;;;14.80;99.90;;;;;;4417039;32;20128;-62
2021/05/29 09:08:18;;;;;;;5.10;0.73;;;15.10;99.90;;;;;;4430842;32;20061;-62
2021/05/29 09:10:48;;;;;;;3.72;0.75;;;15.10;99.90;;;;;;4430747;32;20069;-63
2021/05/29 09:13:17;;;;;;;1.55;0.93;;;15.10;99.90;;;;;;4412737;32;20065;-63
2021/05/29 09:16:01;;;;;;;0.40;0.40;;;15.10;99.90;;;;;;4428591;32;20078;-63
2021/05/29 09:18:31;;;;;;;0.43;0.43;;;14.80;99.90;;;;;;4430178;32;20074;-62
2021/05/29 09:21:21;;;;;;;0.40;0.40;;;14.60;99.90;;;;;;4417542;32;20122;-63
2021/05/29 09:23:49;;;;;;;0.62;0.62;;;14.60;99.90;;;;;;4431680;32;20066;-63
2021/05/29 09:26:15;;;;;;;1.80;0.50;;;15.00;99.90;;;;;;4429722;32;20073;-63
2021/05/29 09:28:43;;;;;;;1.45;0.73;;;15.10;99.90;;;;;;4429989;32;20412;-62
2021/05/29 09:31:13;;;;;;;0.52;0.52;;;15.20;99.90;;;;;;4431087;32;20112;-62
2021/05/29 09:33:39;;;;;;;0.70;0.70;;;15.10;99.90;;;;;;4430191;32;20111;-62
2021/05/29 09:36:09;;;;;;;0.40;0.40;;;15.10;99.90;;;;;;4431460;32;20116;-62
2021/05/29 09:38:38;;;;;;;1.55;1.15;;;15.10;99.90;;;;;;4431333;32;20108;-62
2021/05/29 09:41:07;;;;;;;0.47;0.47;;;15.40;99.90;;;;;;4428120;32;80236;-62
2021/05/29 09:43:53;;;;;;;0.62;0.62;;;15.20;99.90;;;;;;4430792;32;20073;-62
2021/05/29 09:46:18;;;;;;;0.93;0.80;;;15.10;99.90;;;;;;4429539;32;20066;-63
2021/05/29 09:48:54;;;;;;;0.25;0.25;;;14.80;99.90;;;;;;4430018;32;20077;-61
2021/05/29 09:51:20;;;;;;;3.83;1.05;;;14.80;99.90;;;;;;4430402;32;20077;-62
2021/05/29 09:53:49;;;;;;;1.30;0.62;;;15.20;99.90;;;;;;4431209;32;20065;-62
2021/05/29 09:56:40;;;;;;;0.65;0.50;;;15.50;99.90;;;;;;4430158;32;20065;-63
2021/05/29 09:59:08;;;;;;;0.52;0.52;;;15.80;99.90;;;;;;4419166;32;20866;-63
2021/05/29 10:01:42;;;;;;;0.45;0.45;;;16.00;99.90;;;;;;4429792;32;20510;-63
2021/05/29 10:04:09;;;;;;;1.30;0.98;;;16.00;99.90;;;;;;4417387;32;20073;-63
2021/05/29 10:06:35;;;;;;;1.02;0.60;;;15.90;99.90;;;;;;4430088;32;20044;-62
2021/05/29 10:09:02;;;;;;;0.40;0.40;;;15.70;99.90;;;;;;4403880;32;20111;-62
2021/05/29 10:11:29;;;;;;;0.68;0.50;;;15.70;99.90;;;;;;4430064;32;20053;-62
2021/05/29 10:13:55;;;;;;;0.40;0.40;;;15.60;99.90;;;;;;4430632;32;20073;-61
2021/05/29 10:16:21;;;;;;;0.30;0.30;;;15.60;99.90;;;;;;4429784;32;20082;-63
2021/05/29 10:18:50;;;;;;;0.60;0.60;;;16.10;99.90;;;;;;4429565;32;20123;-63
2021/05/29 10:21:18;;;;;;;18.10;0.70;;;16.30;99.90;;;;;;4429670;32;20057;-63
2021/05/29 10:23:46;;;;;;;0.40;0.40;;;16.00;99.90;;;;;;4428928;32;20123;-60
2021/05/29 10:26:14;;;;;;;1.20;0.90;;;16.20;99.90;;;;;;4416162;32;20076;-62
2021/05/29 10:28:40;;;;;;;0.47;0.47;;;16.30;99.90;;;;;;4430504;32;20612;-62
2021/05/29 10:31:06;;;;;;;0.57;0.57;;;16.40;99.90;;;;;;4429181;32;20069;-61
2021/05/29 10:33:41;;;;;;;0.93;0.50;;;16.20;99.90;;;;;;4429556;32;20197;-58
2021/05/29 10:36:07;;;;;;;0.57;0.57;;;16.00;99.90;;;;;;4416392;32;20108;-63
2021/05/29 10:38:49;;;;;;;1.42;0.50;;;16.40;99.90;;;;;;4429333;32;20098;-61
2021/05/29 10:41:15;;;;;;;0.50;0.50;;;16.50;99.90;;;;;;4430294;32;20089;-62
2021/05/29 10:43:40;;;;;;;1.55;0.70;;;16.60;99.90;;;;;;4425047;32;20086;-62
2021/05/29 10:46:09;;;;;;;1.30;0.70;;;16.60;99.90;;;;;;4414078;32;20065;-62
2021/05/29 10:48:51;;;;;;;0.40;0.40;;;16.40;99.90;;;;;;4415293;32;20069;-62
2021/05/29 10:51:18;;;;;;;0.57;0.57;;;16.60;99.90;;;;;;4413568;32;20113;-63
2021/05/29 10:53:48;;;;;;;0.68;0.68;;;16.70;99.90;;;;;;4413653;32;20070;-62
2021/05/29 10:56:17;;;;;;;0.50;0.50;;;17.20;99.90;;;;;;4416336;32;20085;-63
2021/05/29 10:59:02;;;;;;;0.45;0.45;;;17.70;99.90;;;;;;4430413;32;20098;-62
2021/05/29 11:01:38;;;;;;;1.10;0.60;;;17.70;99.90;;;;;;4428513;32;20070;-62
2021/05/29 11:04:19;;;;;;;0.40;0.40;;;17.30;99.90;;;;;;4429285;32;20065;-61
2021/05/29 11:06:52;;;;;;;0.50;0.50;;;17.10;99.90;;;;;;4429112;32;20069;-62
2021/05/29 11:09:45;;;;;;;5.47;0.65;;;17.20;99.90;;;;;;4416734;32;20094;-62
2021/05/29 11:12:11;;;;;;;0.50;0.50;;;17.20;99.90;;;;;;4418823;32;20124;-61
2021/05/29 11:14:56;;;;;;;0.52;0.52;;;17.20;99.90;;;;;;4429865;32;20069;-62
2021/05/29 11:17:25;;;;;;;0.70;0.70;;;17.30;99.90;;;;;;4430113;32;20054;-62
2021/05/29 11:20:15;;;;;;;0.68;0.68;;;17.60;99.90;;;;;;4404507;32;20439;-62
2021/05/29 11:22:44;;;;;;;0.40;0.40;;;18.00;99.90;;;;;;4416950;32;20482;-62
2021/05/29 11:25:13;;;;;;;1.55;0.50;;;18.20;99.90;;;;;;4430368;32;20077;-62
2021/05/29 11:27:39;;;;;;;6.00;1.12;;;18.00;99.90;;;;;;4429917;32;20053;-62
2021/05/29 11:30:10;;;;;;;0.90;0.82;;;18.30;99.90;;;;;;4415158;32;20130;-62
2021/05/29 11:32:59;;;;;;;9.68;0.57;;;18.20;99.90;;;;;;4415917;32;20530;-62
2021/05/29 11:35:32;;;;;;;0.30;0.30;;;17.90;99.90;;;;;;4403963;32;20078;-62
2021/05/29 11:38:05;;;;;;;0.52;0.52;;;18.30;99.90;;;;;;4429724;32;20074;-61
2021/05/29 11:40:41;;;;;;;0.43;0.43;;;18.70;99.90;;;;;;4415317;32;20541;-62
2021/05/29 11:43:06;;;;;;;0.25;0.25;;;19.00;99.90;;;;;;4428478;32;20082;-63
2021/05/29 11:45:32;;;;;;;1.00;0.85;;;19.20;99.90;;;;;;4417601;32;20531;-63
2021/05/29 11:47:57;;;;;;;0.50;0.50;;;18.60;99.90;;;;;;4431894;32;20112;-62
2021/05/29 11:50:23;;;;;;;0.20;0.20;;;18.80;99.90;;;;;;4387261;32;20070;-62
2021/05/29 11:52:48;;;;;;;1.12;0.40;;;19.30;99.90;;;;;;4401494;32;20508;-63
2021/05/29 11:55:14;;;;;;;0.30;0.30;;;19.50;99.90;;;;;;4401933;32;20082;-63
2021/05/29 11:58:01;;;;;;;0.30;0.30;;;19.30;99.90;;;;;;4400788;32;20634;-62
2021/05/29 12:00:28;;;;;;;0.40;0.40;;;18.80;99.90;;;;;;4389806;32;20065;-63
2021/05/29 12:02:54;;;;;;;0.50;0.47;;;18.80;99.90;;;;;;4388413;32;20069;-63
2021/05/29 12:05:21;;;;;;;0.70;0.60;;;19.40;99.90;;;;;;4400549;32;20066;-62
2021/05/29 12:08:04;;;;;;;0.75;0.45;;;19.50;99.90;;;;;;4401522;32;20079;-62
2021/05/29 12:10:50;;;;;;;0.40;0.40;;;19.80;99.90;;;;;;4386926;32;20138;-62
2021/05/29 12:13:31;;;;;;;2.17;0.80;;;20.40;99.90;;;;;;4409572;32;20093;-63
2021/05/29 12:16:00;;;;;;;0.35;0.35;;;20.50;99.90;;;;;;4430366;32;20170;-63
2021/05/29 12:18:37;;;;;;;1.40;0.88;;;20.60;99.90;;;;;;4418429;32;20509;-63
2021/05/29 12:21:04;;;;;;;0.57;0.57;;;20.40;99.90;;;;;;4417752;32;20069;-62
2021/05/29 12:23:30;;;;;;;0.40;0.40;;;19.80;99.90;;;;;;4417855;32;20182;-62
2021/05/29 12:25:55;;;;;;;1.92;0.88;;;19.80;99.90;;;;;;4432370;32;20120;-62
2021/05/29 12:28:23;;;;;;;0.85;0.60;;;19.70;99.90;;;;;;4416808;32;20062;-62
2021/05/29 12:30:53;;;;;;;0.35;0.32;;;19.40;99.90;;;;;;4431575;32;20522;-62
2021/05/29 12:33:22;;;;;;;9.93;0.67;;;20.20;99.90;;;;;;4432319;32;20416;-62
2021/05/29 12:35:48;;;;;;;1.00;0.60;;;20.80;99.90;;;;;;4405462;32;20065;-62
2021/05/29 12:38:17;;;;;;;0.20;0.20;;;21.00;99.90;;;;;;4417077;32;20096;-62
2021/05/29 12:41:08;;;;;;;0.30;0.20;;;21.30;99.70;;;;;;4417422;32;20090;-62
2021/05/29 12:43:34;;;;;;;;;;;21.30;99.90;;;;;;4404331;32;20099;-64
2021/05/29 12:45:59;;;;;;;0.20;0.20;;;21.10;99.60;;;;;;4430055;32;19952;-63
2021/05/29 12:48:25;;;;;;;0.32;0.32;;;21.20;99.20;;;;;;4416696;32;20085;-63
2021/05/29 12:51:09;;;;;;;0.40;0.40;;;20.70;99.10;;;;;;4430702;32;20074;-61
2021/05/29 12:53:38;;;;;;;0.55;0.55;;;19.70;99.90;;;;;;4407236;32;20074;-63
2021/05/29 12:56:09;;;;;;;0.30;0.25;;;19.50;99.90;;;;;;4414212;32;20062;-62
2021/05/29 12:58:35;;;;;;;0.45;0.40;;;20.00;99.90;;;;;;4415160;32;20069;-62